createdAt,value
2023-04-21T00:04:41.861Z,100935.89
2023-04-21T00:09:34.746Z,100936.19
2023-04-21T00:14:27.784Z,100930.56
2023-04-21T00:19:21.782Z,100931.88
2023-04-21T00:24:14.496Z,100929.80
2023-04-21T00:29:07.220Z,100926.58
2023-04-21T00:34:00.502Z,100926.88
2023-04-21T00:38:53.348Z,100922.40
2023-04-21T00:44:05.277Z,100925.63
2023-04-21T00:48:58.751Z,100925.20
2023-04-21T00:53:52.426Z,100924.95
2023-04-21T00:58:46.603Z,100921.45
2023-04-21T01:03:40.226Z,100916.24
2023-04-21T01:08:33.157Z,100916.46
2023-04-21T01:13:25.853Z,100919.81
2023-04-21T01:18:19.448Z,100923.20
2023-04-21T01:23:14.281Z,100921.20
2023-04-21T01:28:06.986Z,100925.00
2023-04-21T01:33:00.839Z,100928.58
2023-04-21T01:37:53.774Z,100927.30
2023-04-21T01:42:46.554Z,100927.80
2023-04-21T01:47:39.403Z,100924.95
2023-04-21T01:52:32.196Z,100926.15
2023-04-21T01:57:25.354Z,100929.27
2023-04-21T02:02:18.543Z,100930.02
2023-04-21T02:07:11.388Z,100926.77
2023-04-21T02:12:06.363Z,100923.63
2023-04-21T02:16:59.132Z,100920.84
2023-04-21T02:21:51.877Z,100922.64
2023-04-21T02:26:47.597Z,100921.63
2023-04-21T02:31:54.239Z,100918.27
2023-04-21T02:36:50.460Z,100919.14
2023-04-21T02:41:45.273Z,100920.99
2023-04-21T02:46:41.195Z,100917.50
2023-04-21T02:51:33.952Z,100915.89
2023-04-21T02:56:26.683Z,100915.33
2023-04-21T03:01:19.478Z,100915.83
2023-04-21T03:06:12.833Z,100914.94
2023-04-21T03:11:05.682Z,100912.04
2023-04-21T03:15:58.566Z,100907.15
2023-04-21T03:20:51.287Z,100909.89
2023-04-21T03:25:44.032Z,100911.30
2023-04-21T03:30:36.718Z,100910.19
2023-04-21T03:35:30.778Z,100910.41
2023-04-21T03:40:24.129Z,100917.65
2023-04-21T03:45:19.712Z,100918.19
2023-04-21T03:50:13.586Z,100919.86
2023-04-21T03:55:09.088Z,100927.02
2023-04-21T04:00:01.811Z,100926.02
2023-04-21T04:04:54.535Z,100929.90
2023-04-21T04:09:47.291Z,100929.69
2023-04-21T04:14:40.570Z,100936.29
2023-04-21T04:19:33.320Z,100939.58
2023-04-21T04:24:26.847Z,100938.85
2023-04-21T04:29:20.199Z,100939.90
2023-04-21T04:34:13.502Z,100945.45
2023-04-21T04:39:08.304Z,100950.36
2023-04-21T04:44:04.660Z,100954.14
2023-04-21T04:48:57.379Z,100951.36
2023-04-21T04:53:50.507Z,100955.79
2023-04-21T04:58:43.386Z,100951.45
2023-04-21T05:03:36.313Z,100953.22
2023-04-21T05:08:29.110Z,100952.27
2023-04-21T05:13:21.808Z,100953.83
2023-04-21T05:18:14.508Z,100953.16
2023-04-21T05:23:07.184Z,100953.53
2023-04-21T05:27:59.902Z,100945.73
2023-04-21T05:32:52.935Z,100943.86
2023-04-21T05:37:45.681Z,100944.73
2023-04-21T05:42:38.398Z,100948.34
2023-04-21T05:47:31.140Z,100946.44
2023-04-21T05:52:23.938Z,100944.81
2023-04-21T05:57:18.014Z,100945.46
2023-04-21T06:02:10.967Z,100944.00
2023-04-21T06:07:08.339Z,100942.08
2023-04-21T06:12:01.977Z,100943.02
2023-04-21T06:16:54.694Z,100939.34
2023-04-21T06:21:47.364Z,100934.41
2023-04-21T06:26:40.097Z,100938.45
2023-04-21T06:31:32.840Z,100933.82
2023-04-21T06:36:25.590Z,100933.87
2023-04-21T06:41:19.679Z,100933.70
2023-04-21T06:46:12.477Z,100926.70
2023-04-21T06:51:05.292Z,100915.15
2023-04-21T06:55:57.982Z,100907.00
2023-04-21T07:00:51.469Z,100902.86
2023-04-21T07:05:44.202Z,100899.67
2023-04-21T07:10:36.875Z,100901.74
2023-04-21T07:15:29.572Z,100907.45
2023-04-21T07:20:22.288Z,100902.41
2023-04-21T07:25:14.975Z,100900.94
2023-04-21T07:30:08.028Z,100894.71
2023-04-21T07:35:02.115Z,100896.84
2023-04-21T07:39:54.936Z,100896.67
2023-04-21T07:44:48.935Z,100897.95
2023-04-21T07:49:42.252Z,100888.65
2023-04-21T07:54:34.984Z,100889.63
2023-04-21T07:59:27.682Z,100883.80
2023-04-21T08:04:20.796Z,100876.17
2023-04-21T08:09:13.979Z,100875.15
2023-04-21T08:14:07.144Z,100872.15
2023-04-21T08:19:00.485Z,100873.38
2023-04-21T08:23:53.240Z,100872.27
2023-04-21T08:28:48.830Z,100869.34
2023-04-21T08:33:49.817Z,100868.52
2023-04-21T08:38:51.106Z,100863.42
2023-04-21T08:43:43.858Z,100868.54
2023-04-21T08:48:37.748Z,100864.36
2023-04-21T08:53:30.543Z,100861.73
2023-04-21T08:58:24.349Z,100862.95
2023-04-21T09:03:26.025Z,100862.44
2023-04-21T09:08:19.669Z,100853.31
2023-04-21T09:13:13.102Z,100848.35
2023-04-21T09:18:11.884Z,100850.57
2023-04-21T09:23:08.123Z,100842.66
2023-04-21T09:28:04.048Z,100845.59
2023-04-21T09:32:59.870Z,100839.34
2023-04-21T09:37:52.571Z,100836.73
2023-04-21T09:42:45.548Z,100838.77
2023-04-21T09:47:43.015Z,100832.19
2023-04-21T09:52:35.799Z,100820.27
2023-04-21T09:57:30.813Z,100818.21
2023-04-21T10:02:26.156Z,100810.05
2023-04-21T10:07:18.978Z,100809.50
2023-04-21T10:12:12.597Z,100802.05
2023-04-21T10:17:06.879Z,100798.95
2023-04-21T10:22:00.059Z,100794.91
2023-04-21T10:26:55.147Z,100788.73
2023-04-21T10:31:48.218Z,100779.20
2023-04-21T10:36:47.118Z,100778.60
2023-04-21T10:41:40.677Z,100779.43
2023-04-21T10:46:35.100Z,100771.27
2023-04-21T10:51:32.291Z,100763.53
2023-04-21T10:56:25.701Z,100762.78
2023-04-21T11:01:19.156Z,100752.14
2023-04-21T11:06:19.000Z,100750.34
2023-04-21T11:11:11.698Z,100743.74
2023-04-21T11:16:08.270Z,100742.28
2023-04-21T11:21:13.857Z,100728.14
2023-04-21T11:26:06.700Z,100721.91
2023-04-21T11:31:00.237Z,100722.40
2023-04-21T11:35:57.947Z,100712.45
2023-04-21T11:40:51.466Z,100713.61
2023-04-21T11:45:44.265Z,100701.22
2023-04-21T11:50:39.154Z,100698.09
2023-04-21T11:55:31.856Z,100702.98
2023-04-21T12:00:24.617Z,100704.27
2023-04-21T12:05:17.351Z,100694.20
2023-04-21T12:10:18.755Z,100689.77
2023-04-21T12:15:12.998Z,100682.83
2023-04-21T12:20:07.463Z,100681.77
2023-04-21T12:25:00.321Z,100673.08
2023-04-21T12:29:53.057Z,100665.42
2023-04-21T12:34:45.742Z,100665.70
2023-04-21T12:39:38.453Z,100659.85
2023-04-21T12:44:31.249Z,100648.79
2023-04-21T12:49:24.038Z,100638.88
2023-04-21T12:54:16.765Z,100646.05
2023-04-21T12:59:10.659Z,100638.63
2023-04-21T13:04:03.605Z,100630.30
2023-04-21T13:08:57.088Z,100635.86
2023-04-21T13:13:49.748Z,100635.08
2023-04-21T13:18:42.465Z,100627.39
2023-04-21T13:23:35.190Z,100615.23
2023-04-21T13:28:27.948Z,100615.59
2023-04-21T13:33:21.314Z,100601.44
2023-04-21T13:38:14.084Z,100601.79
2023-04-21T13:43:06.791Z,100596.38
2023-04-21T13:47:59.684Z,100600.00
2023-04-21T13:52:52.460Z,100592.72
2023-04-21T13:57:45.262Z,100587.95
2023-04-21T14:02:38.623Z,100583.39
2023-04-21T14:07:32.211Z,100578.83
2023-04-21T14:12:26.289Z,100580.36
2023-04-21T14:17:19.111Z,100574.30
2023-04-21T14:22:11.881Z,100574.49
2023-04-21T14:27:05.228Z,100560.88
2023-04-21T14:31:59.498Z,100557.11
2023-04-21T14:36:52.683Z,100548.69
2023-04-21T14:41:45.428Z,100545.20
2023-04-21T14:46:38.744Z,100545.95
2023-04-21T14:51:32.090Z,100537.42
2023-04-21T14:56:24.912Z,100538.51
2023-04-21T15:01:17.787Z,100534.44
2023-04-21T15:06:10.964Z,100531.19
2023-04-21T15:11:03.863Z,100530.43
2023-04-21T15:15:56.859Z,100526.97
2023-04-21T15:20:49.539Z,100523.41
2023-04-21T15:25:42.725Z,100522.33
2023-04-21T15:30:36.017Z,100518.33
2023-04-21T15:35:28.822Z,100514.81
2023-04-21T15:40:21.506Z,100512.83
2023-04-21T15:45:14.300Z,100515.63
2023-04-21T15:50:07.628Z,100511.91
2023-04-21T15:55:00.994Z,100511.23
2023-04-21T15:59:53.688Z,100508.90
2023-04-21T16:04:46.603Z,100508.17
2023-04-21T16:09:39.591Z,100504.59
2023-04-21T16:14:46.543Z,100505.19
2023-04-21T16:19:45.755Z,100499.62
2023-04-21T16:24:38.770Z,100502.41
2023-04-21T16:29:31.903Z,100501.90
2023-04-21T16:34:24.594Z,100501.61
2023-04-21T16:39:17.668Z,100500.81
2023-04-21T16:44:10.653Z,100497.48
2023-04-21T16:49:03.481Z,100493.34
2023-04-21T16:53:56.818Z,100491.93
2023-04-21T16:58:49.525Z,100491.86
2023-04-21T17:03:42.365Z,100490.77
2023-04-21T17:08:35.218Z,100492.06
2023-04-21T17:13:27.928Z,100498.48
2023-04-21T17:18:20.706Z,100507.98
2023-04-21T17:23:13.376Z,100505.91
2023-04-21T17:28:06.590Z,100507.85
2023-04-21T17:33:14.887Z,100502.58
2023-04-21T17:38:09.741Z,100509.14
2023-04-21T17:43:02.496Z,100514.91
2023-04-21T17:47:55.247Z,100516.98
2023-04-21T17:52:47.988Z,100519.53
2023-04-21T17:57:40.648Z,100519.80
2023-04-21T18:02:33.478Z,100524.70
2023-04-21T18:07:26.409Z,100526.49
2023-04-21T18:12:19.899Z,100534.52
2023-04-21T18:17:13.081Z,100531.71
2023-04-21T18:22:06.881Z,100532.04
2023-04-21T18:26:59.546Z,100535.66
2023-04-21T18:31:52.368Z,100538.20
2023-04-21T18:36:45.121Z,100541.07
2023-04-21T18:41:39.305Z,100535.25
2023-04-21T18:46:32.022Z,100535.86
2023-04-21T18:51:25.012Z,100535.04
2023-04-21T18:56:17.685Z,100534.27
2023-04-21T19:01:10.478Z,100529.99
2023-04-21T19:06:03.177Z,100528.13
2023-04-21T19:10:56.442Z,100527.80
2023-04-21T19:15:49.144Z,100524.71
2023-04-21T19:20:41.861Z,100528.57
2023-04-21T19:25:34.815Z,100528.42
2023-04-21T19:30:27.521Z,100526.84
2023-04-21T19:35:20.930Z,100525.60
2023-04-21T19:40:13.777Z,100525.27
2023-04-21T19:45:08.426Z,100523.39
2023-04-21T19:50:01.117Z,100527.04
2023-04-21T19:54:53.973Z,100529.14
2023-04-21T19:59:46.797Z,100530.55
2023-04-21T20:04:39.650Z,100529.88
2023-04-21T20:09:32.450Z,100529.66
2023-04-21T20:14:25.158Z,100533.09
2023-04-21T20:19:18.422Z,100530.92
2023-04-21T20:24:12.311Z,100533.85
2023-04-21T20:29:05.165Z,100539.39
2023-04-21T20:33:57.954Z,100539.75
2023-04-21T20:38:50.734Z,100546.25
2023-04-21T20:43:44.023Z,100544.33
2023-04-21T20:48:36.729Z,100542.35
2023-04-21T20:53:29.430Z,100544.63
2023-04-21T20:58:22.172Z,100543.70
2023-04-21T21:03:15.133Z,100543.77
2023-04-21T21:08:08.759Z,100545.36
2023-04-21T21:13:01.495Z,100542.23
2023-04-21T21:17:54.223Z,100538.84
2023-04-21T21:22:47.142Z,100539.64
2023-04-21T21:27:39.850Z,100536.59
2023-04-21T21:32:32.904Z,100535.08
2023-04-21T21:37:25.650Z,100531.73
2023-04-21T21:42:20.034Z,100531.59
2023-04-21T21:47:12.741Z,100529.95
2023-04-21T21:52:06.312Z,100533.07
2023-04-21T21:56:59.470Z,100535.08
2023-04-21T22:01:52.465Z,100533.33
2023-04-21T22:06:45.486Z,100534.09
2023-04-21T22:11:38.230Z,100533.93
2023-04-21T22:16:31.159Z,100531.45
2023-04-21T22:21:26.130Z,100531.08
2023-04-21T22:26:18.817Z,100532.44
2023-04-21T22:31:11.647Z,100530.15
2023-04-21T22:36:04.429Z,100527.00
2023-04-21T22:40:57.258Z,100526.38
2023-04-21T22:45:49.963Z,100525.20
2023-04-21T22:50:44.371Z,100522.85
2023-04-21T22:55:37.308Z,100525.23
2023-04-21T23:00:30.125Z,100525.30
2023-04-21T23:05:22.885Z,100521.91
2023-04-21T23:10:15.550Z,100517.95
2023-04-21T23:15:08.500Z,100523.23
2023-04-21T23:20:06.760Z,100525.92
2023-04-21T23:24:59.569Z,100520.92
2023-04-21T23:29:54.888Z,100518.36
2023-04-21T23:34:47.585Z,100522.60
2023-04-21T23:39:40.543Z,100524.65
2023-04-21T23:44:33.735Z,100527.02
2023-04-21T23:49:26.401Z,100526.13
2023-04-21T23:54:19.133Z,100528.82
2023-04-21T23:59:12.180Z,100522.45
